Terminal Aerodrome Forecast
Issued by NWS

Home | Current Version | Previous Version | Text Only | Print | Product List | Glossary On
Versions: 1 2 3 4 5 6 7 8 9 10 11 12
173
FTUS46 KSTO 291738
TAFSMF
TAF
KSMF 291738Z 2918/3018 17010KT P6SM SKC
     FM292300 18013G21KT P6SM SKC
     FM300300 16012KT P6SM SKC=

USA.gov is the U.S. government's official web portal to all federal, state and local government web resources and services.